createdAt,value
2023-02-11T00:00:18.714Z,103368.81
2023-02-11T00:01:25.277Z,103364.50
2023-02-11T00:02:29.851Z,103367.56
2023-02-11T00:03:32.459Z,103365.13
2023-02-11T00:04:35.896Z,103367.56
2023-02-11T00:05:38.809Z,103366.38
2023-02-11T00:06:42.308Z,103367.13
2023-02-11T00:07:44.778Z,103369.34
2023-02-11T00:08:48.900Z,103369.78
2023-02-11T00:09:51.405Z,103368.16
2023-02-11T00:10:55.542Z,103364.59
2023-02-11T00:11:59.032Z,103369.50
2023-02-11T00:13:01.637Z,103365.78
2023-02-11T00:14:09.190Z,103362.09
2023-02-11T00:15:11.838Z,103370.47
2023-02-11T00:16:17.844Z,103370.09
2023-02-11T00:17:20.425Z,103366.53
2023-02-11T00:18:24.040Z,103369.06
2023-02-11T00:19:27.499Z,103365.34
2023-02-11T00:20:30.095Z,103368.19
2023-02-11T00:21:34.175Z,103363.03
2023-02-11T00:22:36.490Z,103364.06
2023-02-11T00:23:40.326Z,103363.91
2023-02-11T00:24:42.824Z,103368.22
2023-02-11T00:25:47.482Z,103359.91
2023-02-11T00:26:51.135Z,103362.59
2023-02-11T00:27:53.576Z,103358.72
2023-02-11T00:28:57.254Z,103361.31
2023-02-11T00:30:02.448Z,103350.16
2023-02-11T00:31:06.384Z,103354.41
2023-02-11T00:32:10.144Z,103350.41
2023-02-11T00:33:13.873Z,103348.88
2023-02-11T00:34:16.586Z,103342.75
2023-02-11T00:35:20.007Z,103348.38
2023-02-11T00:36:25.014Z,103348.00
2023-02-11T00:37:28.470Z,103342.28
2023-02-11T00:38:30.853Z,103346.28
2023-02-11T00:39:34.894Z,103338.56
2023-02-11T00:40:37.291Z,103344.75
2023-02-11T00:41:40.830Z,103347.81
2023-02-11T00:42:43.870Z,103342.16
2023-02-11T00:43:48.069Z,103337.16
2023-02-11T00:44:50.500Z,103335.25
2023-02-11T00:45:56.070Z,103329.34
2023-02-11T00:46:58.600Z,103328.13
2023-02-11T00:48:02.165Z,103335.56
2023-02-11T00:49:04.715Z,103333.28
2023-02-11T00:50:08.594Z,103334.13
2023-02-11T00:51:11.503Z,103324.16
2023-02-11T00:52:15.148Z,103325.94
2023-02-11T00:53:17.819Z,103321.03
2023-02-11T00:54:21.354Z,103326.47
2023-02-11T00:55:23.828Z,103318.81
2023-02-11T00:56:27.616Z,103321.97
2023-02-11T00:57:30.082Z,103315.72
2023-02-11T00:58:33.900Z,103319.06
2023-02-11T00:59:37.183Z,103320.19
2023-02-11T01:00:41.217Z,103321.09
2023-02-11T01:01:45.178Z,103319.38
2023-02-11T01:02:48.880Z,103313.31
2023-02-11T01:03:51.955Z,103319.66
2023-02-11T01:04:55.637Z,103320.13
2023-02-11T01:05:58.182Z,103324.13
2023-02-11T01:07:01.749Z,103318.56
2023-02-11T01:08:04.560Z,103317.47
2023-02-11T01:09:08.307Z,103315.72
2023-02-11T01:10:11.116Z,103314.31
2023-02-11T01:11:17.177Z,103308.00
2023-02-11T01:12:19.955Z,103315.78
2023-02-11T01:13:24.503Z,103320.28
2023-02-11T01:14:27.232Z,103324.78
2023-02-11T01:15:31.204Z,103321.16
2023-02-11T01:16:33.831Z,103322.75
2023-02-11T01:17:39.420Z,103308.16
2023-02-11T01:18:44.479Z,103311.09
2023-02-11T01:19:48.265Z,103303.78
2023-02-11T01:20:52.262Z,103305.81
2023-02-11T01:21:55.943Z,103307.88
2023-02-11T01:22:58.402Z,103314.94
2023-02-11T01:24:02.299Z,103306.03
2023-02-11T01:25:05.127Z,103312.84
2023-02-11T01:26:08.661Z,103301.13
2023-02-11T01:27:11.236Z,103309.22
2023-02-11T01:28:18.639Z,103297.13
2023-02-11T01:29:21.124Z,103296.59
2023-02-11T01:30:24.605Z,103297.19
2023-02-11T01:31:27.125Z,103297.06
2023-02-11T01:32:30.739Z,103299.03
2023-02-11T01:33:34.902Z,103306.38
2023-02-11T01:34:38.474Z,103298.97
2023-02-11T01:35:41.812Z,103301.38
2023-02-11T01:36:45.512Z,103296.38
2023-02-11T01:37:47.935Z,103296.13
2023-02-11T01:38:51.623Z,103300.72
2023-02-11T01:39:54.010Z,103296.13
2023-02-11T01:41:00.540Z,103291.97
2023-02-11T01:42:03.509Z,103295.63
2023-02-11T01:43:07.921Z,103295.47
2023-02-11T01:44:28.927Z,103288.13
2023-02-11T01:46:07.151Z,103287.53
2023-02-11T01:47:09.940Z,103287.75
2023-02-11T01:48:15.447Z,103292.81
2023-02-11T01:49:23.028Z,103285.59
2023-02-11T01:50:25.723Z,103287.22
2023-02-11T01:51:34.448Z,103288.88
2023-02-11T01:52:41.228Z,103289.59
2023-02-11T01:54:03.310Z,103289.25
2023-02-11T01:55:28.489Z,103283.69
2023-02-11T01:56:50.219Z,103288.75
2023-02-11T01:57:57.139Z,103284.44
2023-02-11T01:59:04.094Z,103288.50
2023-02-11T02:00:11.692Z,103289.75
2023-02-11T02:01:19.638Z,103283.81
2023-02-11T02:02:28.842Z,103284.03
2023-02-11T02:03:34.467Z,103279.66
2023-02-11T02:04:45.721Z,103283.00
2023-02-11T02:05:58.100Z,103274.91
2023-02-11T02:07:07.172Z,103275.03
2023-02-11T02:08:16.017Z,103271.63
2023-02-11T02:09:23.184Z,103269.41
2023-02-11T02:10:28.900Z,103271.50
2023-02-11T02:11:32.998Z,103270.44
2023-02-11T02:12:35.320Z,103271.19
2023-02-11T02:13:39.084Z,103269.78
2023-02-11T02:14:42.033Z,103270.34
2023-02-11T02:15:50.909Z,103263.00
2023-02-11T02:16:53.512Z,103268.72
2023-02-11T02:18:05.105Z,103264.41
2023-02-11T02:19:34.282Z,103271.41
2023-02-11T02:21:16.240Z,103269.91
2023-02-11T02:22:43.133Z,103270.25
2023-02-11T02:24:02.322Z,103267.28
2023-02-11T02:25:33.530Z,103260.56
2023-02-11T02:27:17.429Z,103257.28
2023-02-11T02:28:37.344Z,103258.22
2023-02-11T02:30:31.062Z,103253.50
2023-02-11T02:31:52.356Z,103252.28
2023-02-11T02:33:41.949Z,103252.50
2023-02-11T02:34:51.074Z,103250.28
2023-02-11T02:36:03.031Z,103249.19
2023-02-11T02:37:10.874Z,103246.84
2023-02-11T02:38:20.384Z,103241.69
2023-02-11T02:39:26.684Z,103237.31
2023-02-11T02:40:33.703Z,103237.06
2023-02-11T02:41:38.210Z,103240.00
2023-02-11T02:42:43.157Z,103227.81
2023-02-11T02:43:48.813Z,103231.75
2023-02-11T02:44:54.651Z,103234.94
2023-02-11T02:46:10.856Z,103240.69
2023-02-11T02:47:14.285Z,103235.16
2023-02-11T02:48:29.624Z,103222.94
2023-02-11T02:49:33.135Z,103238.66
2023-02-11T02:50:37.710Z,103229.41
2023-02-11T02:51:53.868Z,103234.72
2023-02-11T02:53:09.534Z,103231.16
2023-02-11T02:54:36.120Z,103235.06
2023-02-11T02:55:52.994Z,103228.44
2023-02-11T02:57:05.945Z,103233.06
2023-02-11T02:58:47.338Z,103230.41
2023-02-11T03:00:03.382Z,103225.06
2023-02-11T03:01:18.334Z,103229.13
2023-02-11T03:02:27.568Z,103230.31
2023-02-11T03:03:43.734Z,103223.88
2023-02-11T03:04:52.006Z,103230.25
2023-02-11T03:06:01.671Z,103228.75
2023-02-11T03:07:09.560Z,103227.38
2023-02-11T03:08:18.423Z,103224.13
2023-02-11T03:09:26.276Z,103223.72
2023-02-11T03:10:32.782Z,103213.56
2023-02-11T03:11:37.517Z,103225.38
2023-02-11T03:12:43.440Z,103222.63
2023-02-11T03:13:47.798Z,103229.31
2023-02-11T03:14:53.497Z,103221.00
2023-02-11T03:15:59.067Z,103225.84
2023-02-11T03:17:06.042Z,103223.13
2023-02-11T03:18:12.134Z,103220.50
2023-02-11T03:19:21.551Z,103229.72
2023-02-11T03:20:24.401Z,103221.38
2023-02-11T03:21:28.739Z,103224.00
2023-02-11T03:22:35.536Z,103226.97
2023-02-11T03:23:42.614Z,103219.00
2023-02-11T03:24:46.354Z,103225.28
2023-02-11T03:25:56.701Z,103223.81
2023-02-11T03:27:03.960Z,103222.44
2023-02-11T03:28:14.048Z,103224.50
2023-02-11T03:29:26.928Z,103224.00
2023-02-11T03:30:37.305Z,103221.31
2023-02-11T03:31:47.839Z,103219.03
2023-02-11T03:32:55.264Z,103222.47
2023-02-11T03:34:02.884Z,103214.81
2023-02-11T03:35:13.638Z,103218.88
2023-02-11T03:36:21.799Z,103221.88
2023-02-11T03:37:30.757Z,103218.19
2023-02-11T03:38:37.939Z,103214.69
2023-02-11T03:39:45.464Z,103214.84
2023-02-11T03:40:48.444Z,103212.25
2023-02-11T03:41:53.717Z,103213.97
2023-02-11T03:43:02.546Z,103219.19
2023-02-11T03:44:06.987Z,103209.16
2023-02-11T03:45:14.176Z,103215.19
2023-02-11T03:46:21.333Z,103213.97
2023-02-11T03:47:28.731Z,103217.94
2023-02-11T03:48:33.779Z,103215.09
2023-02-11T03:49:39.935Z,103214.09
2023-02-11T03:50:46.015Z,103211.28
2023-02-11T03:51:52.834Z,103209.63
2023-02-11T03:52:57.339Z,103218.06
2023-02-11T03:54:04.925Z,103219.31
2023-02-11T03:55:13.229Z,103207.38
2023-02-11T03:56:21.173Z,103204.81
2023-02-11T03:57:25.586Z,103209.97
2023-02-11T03:58:28.155Z,103207.00
2023-02-11T03:59:32.028Z,103207.72
2023-02-11T04:00:37.103Z,103205.63
2023-02-11T04:01:40.800Z,103209.75
2023-02-11T04:02:44.328Z,103215.03
2023-02-11T04:03:48.192Z,103205.69
2023-02-11T04:04:50.764Z,103207.22
2023-02-11T04:05:55.978Z,103209.47
2023-02-11T04:06:58.624Z,103211.81
2023-02-11T04:08:02.945Z,103211.72
2023-02-11T04:09:05.518Z,103207.34
2023-02-11T04:10:09.789Z,103211.50
2023-02-11T04:11:12.152Z,103213.97
2023-02-11T04:12:15.949Z,103210.56
2023-02-11T04:13:18.815Z,103219.72
2023-02-11T04:14:22.255Z,103212.72
2023-02-11T04:15:25.544Z,103221.13
2023-02-11T04:16:30.465Z,103217.91
2023-02-11T04:17:33.627Z,103220.13
2023-02-11T04:18:37.287Z,103219.94
2023-02-11T04:19:39.882Z,103223.09
2023-02-11T04:20:43.808Z,103219.19
2023-02-11T04:21:48.159Z,103218.94
2023-02-11T04:22:51.854Z,103220.72
2023-02-11T04:23:54.310Z,103217.72
2023-02-11T04:24:58.019Z,103220.19
2023-02-11T04:26:01.088Z,103223.19
2023-02-11T04:27:04.806Z,103222.66
2023-02-11T04:28:07.454Z,103221.69
2023-02-11T04:29:11.073Z,103224.63
2023-02-11T04:30:14.436Z,103225.84
2023-02-11T04:31:17.992Z,103213.22
2023-02-11T04:32:20.614Z,103212.41
2023-02-11T04:33:25.166Z,103218.41
2023-02-11T04:34:27.681Z,103221.56
2023-02-11T04:35:31.402Z,103217.47
2023-02-11T04:36:34.990Z,103212.53
2023-02-11T04:37:38.791Z,103220.63
2023-02-11T04:38:42.455Z,103218.97
2023-02-11T04:39:44.992Z,103224.59
2023-02-11T04:40:48.492Z,103220.75
2023-02-11T04:41:50.914Z,103218.72
2023-02-11T04:42:54.368Z,103215.03
2023-02-11T04:43:56.799Z,103210.81
2023-02-11T04:45:00.617Z,103216.94
2023-02-11T04:46:03.358Z,103222.00
2023-02-11T04:47:07.086Z,103217.09
2023-02-11T04:48:09.366Z,103217.47
2023-02-11T04:49:14.845Z,103222.78
2023-02-11T04:50:17.409Z,103211.59
2023-02-11T04:51:20.970Z,103219.91
2023-02-11T04:52:23.362Z,103221.16
2023-02-11T04:53:28.467Z,103217.34
2023-02-11T04:54:30.904Z,103222.91
2023-02-11T04:55:34.458Z,103221.44
2023-02-11T04:56:36.886Z,103228.38
2023-02-11T04:57:40.443Z,103225.13
2023-02-11T04:58:43.070Z,103225.66
2023-02-11T04:59:46.570Z,103228.53
2023-02-11T05:00:48.917Z,103222.94
2023-02-11T05:01:52.331Z,103227.31
2023-02-11T05:02:54.763Z,103235.78
2023-02-11T05:03:59.309Z,103230.84
2023-02-11T05:05:01.903Z,103228.53
2023-02-11T05:06:06.222Z,103225.94
2023-02-11T05:07:08.606Z,103230.56
2023-02-11T05:08:12.863Z,103233.84
2023-02-11T05:09:17.157Z,103233.72
2023-02-11T05:10:20.816Z,103241.50
2023-02-11T05:11:25.988Z,103237.38
2023-02-11T05:12:29.518Z,103235.50
2023-02-11T05:13:32.628Z,103237.50
2023-02-11T05:14:36.014Z,103233.28
2023-02-11T05:15:38.458Z,103226.91
2023-02-11T05:16:42.012Z,103231.09
2023-02-11T05:17:44.446Z,103238.88
2023-02-11T05:18:49.644Z,103233.97
2023-02-11T05:19:53.329Z,103240.47
2023-02-11T05:20:57.701Z,103238.59
2023-02-11T05:22:03.465Z,103241.50
2023-02-11T05:23:07.489Z,103239.41
2023-02-11T05:24:10.209Z,103230.97
2023-02-11T05:25:15.719Z,103237.00
2023-02-11T05:26:18.567Z,103240.91
2023-02-11T05:27:22.643Z,103237.41
2023-02-11T05:28:25.155Z,103235.72
2023-02-11T05:29:28.654Z,103246.38
2023-02-11T05:30:32.124Z,103237.63
2023-02-11T05:31:35.886Z,103240.66
2023-02-11T05:32:38.894Z,103237.38
2023-02-11T05:33:43.234Z,103235.88
2023-02-11T05:34:47.259Z,103247.22
2023-02-11T05:35:51.646Z,103241.50
2023-02-11T05:36:54.364Z,103240.09
2023-02-11T05:37:58.079Z,103236.56
2023-02-11T05:39:00.576Z,103240.25
2023-02-11T05:40:04.817Z,103239.16
2023-02-11T05:41:08.723Z,103236.28
2023-02-11T05:42:12.328Z,103239.84
2023-02-11T05:43:14.783Z,103240.03
2023-02-11T05:44:18.273Z,103232.31
2023-02-11T05:45:20.927Z,103238.72
2023-02-11T05:46:24.488Z,103236.09
2023-02-11T05:47:27.353Z,103237.34
2023-02-11T05:48:31.212Z,103237.34
2023-02-11T05:49:33.701Z,103236.28
2023-02-11T05:50:37.272Z,103243.75
2023-02-11T05:51:40.879Z,103239.78
2023-02-11T05:52:43.222Z,103239.09
2023-02-11T05:53:47.105Z,103241.00
2023-02-11T05:54:50.013Z,103241.47
2023-02-11T05:55:53.580Z,103241.59
2023-02-11T05:56:57.899Z,103241.34
2023-02-11T05:58:01.381Z,103241.19
2023-02-11T05:59:04.040Z,103243.25
2023-02-11T06:00:09.017Z,103247.63
2023-02-11T06:01:11.520Z,103241.22
2023-02-11T06:02:15.330Z,103244.22
2023-02-11T06:03:18.026Z,103241.50
2023-02-11T06:04:21.738Z,103244.34
2023-02-11T06:05:24.382Z,103247.75
2023-02-11T06:06:28.083Z,103246.53
2023-02-11T06:07:30.650Z,103248.03
2023-02-11T06:08:34.417Z,103248.72
2023-02-11T06:09:37.745Z,103250.06
2023-02-11T06:10:43.379Z,103247.88
2023-02-11T06:11:45.956Z,103252.81
2023-02-11T06:12:51.036Z,103249.00
2023-02-11T06:13:53.498Z,103245.16
2023-02-11T06:14:57.354Z,103248.81
2023-02-11T06:16:01.230Z,103249.13
2023-02-11T06:17:05.348Z,103248.59
2023-02-11T06:18:08.107Z,103252.06
2023-02-11T06:19:11.668Z,103245.66
2023-02-11T06:20:14.410Z,103248.50
2023-02-11T06:21:18.100Z,103249.34
2023-02-11T06:22:20.513Z,103244.88
2023-02-11T06:23:24.218Z,103253.75
2023-02-11T06:24:50.971Z,103248.28
2023-02-11T06:25:50.572Z,103247.22
2023-02-11T06:26:53.080Z,103256.50
2023-02-11T06:27:58.044Z,103244.91
2023-02-11T06:29:00.781Z,103247.78
2023-02-11T06:30:04.441Z,103254.31
2023-02-11T06:31:08.015Z,103255.81
2023-02-11T06:32:24.637Z,103253.91
2023-02-11T06:33:34.738Z,103251.72
2023-02-11T06:34:38.658Z,103246.81
2023-02-11T06:35:40.875Z,103250.22
2023-02-11T06:36:44.569Z,103241.50
2023-02-11T06:37:48.195Z,103253.88
2023-02-11T06:38:52.496Z,103252.81
2023-02-11T06:39:55.330Z,103249.94
2023-02-11T06:40:58.654Z,103254.00
2023-02-11T06:42:00.792Z,103262.50
2023-02-11T06:43:05.816Z,103257.88
2023-02-11T06:44:08.402Z,103254.16
2023-02-11T06:45:13.283Z,103263.84
2023-02-11T06:46:16.560Z,103264.41
2023-02-11T06:47:20.160Z,103261.97
2023-02-11T06:48:23.670Z,103269.19
2023-02-11T06:49:27.046Z,103267.41
2023-02-11T06:50:29.363Z,103265.78
2023-02-11T06:51:32.857Z,103267.41
2023-02-11T06:52:35.487Z,103272.19
2023-02-11T06:53:41.654Z,103267.94
2023-02-11T06:54:43.948Z,103265.47
2023-02-11T06:55:47.379Z,103266.88
2023-02-11T06:56:49.848Z,103259.91
2023-02-11T06:57:53.338Z,103267.69
2023-02-11T06:58:57.634Z,103265.09
2023-02-11T07:00:01.200Z,103267.69
2023-02-11T07:01:06.841Z,103266.72
2023-02-11T07:02:11.472Z,103265.34
2023-02-11T07:03:13.989Z,103258.63
2023-02-11T07:04:17.547Z,103264.69
2023-02-11T07:05:20.204Z,103268.38
2023-02-11T07:06:27.436Z,103264.28
2023-02-11T07:07:31.823Z,103263.75
2023-02-11T07:08:38.757Z,103261.28
2023-02-11T07:09:41.199Z,103264.81
2023-02-11T07:10:44.665Z,103267.28
2023-02-11T07:11:47.015Z,103268.91
2023-02-11T07:12:50.496Z,103265.78
2023-02-11T07:13:54.779Z,103260.28
2023-02-11T07:14:59.849Z,103267.28
2023-02-11T07:16:05.564Z,103263.03
2023-02-11T07:17:09.243Z,103272.59
2023-02-11T07:18:14.337Z,103267.94
2023-02-11T07:19:18.279Z,103264.13
2023-02-11T07:20:20.836Z,103267.25
2023-02-11T07:21:25.601Z,103265.66
2023-02-11T07:22:28.351Z,103267.41
2023-02-11T07:23:31.943Z,103262.75
2023-02-11T07:24:34.476Z,103262.84
2023-02-11T07:25:38.302Z,103266.81
2023-02-11T07:26:40.973Z,103268.66
2023-02-11T07:27:44.513Z,103272.19
2023-02-11T07:28:47.213Z,103265.88
2023-02-11T07:29:50.675Z,103265.16
2023-02-11T07:30:54.630Z,103268.75
2023-02-11T07:31:58.316Z,103265.56
2023-02-11T07:33:01.870Z,103269.28
2023-02-11T07:34:04.318Z,103270.63
2023-02-11T07:35:08.157Z,103272.94
2023-02-11T07:36:11.326Z,103274.47
2023-02-11T07:37:14.862Z,103272.63
2023-02-11T07:38:17.328Z,103271.16
2023-02-11T07:39:22.125Z,103274.69
2023-02-11T07:40:24.535Z,103270.19
2023-02-11T07:41:29.430Z,103275.13
2023-02-11T07:42:32.022Z,103279.31
2023-02-11T07:43:35.829Z,103280.94
2023-02-11T07:44:39.366Z,103280.13
2023-02-11T07:45:41.775Z,103276.78
2023-02-11T07:46:47.970Z,103277.50
2023-02-11T07:47:50.373Z,103272.81
2023-02-11T07:48:55.064Z,103268.91
2023-02-11T07:49:57.574Z,103274.19
2023-02-11T07:51:07.575Z,103280.69
2023-02-11T07:52:09.933Z,103278.59
2023-02-11T07:53:13.636Z,103271.03
2023-02-11T07:54:16.029Z,103273.56
2023-02-11T07:55:19.697Z,103266.00
2023-02-11T07:56:22.928Z,103267.19
2023-02-11T07:57:26.251Z,103273.34
2023-02-11T07:58:28.690Z,103267.34
2023-02-11T07:59:32.396Z,103270.50
2023-02-11T08:00:34.861Z,103273.69
2023-02-11T08:01:38.782Z,103268.66
2023-02-11T08:02:42.563Z,103276.09
2023-02-11T08:03:46.652Z,103273.81
2023-02-11T08:04:50.904Z,103273.16
2023-02-11T08:05:53.564Z,103278.09
2023-02-11T08:06:59.290Z,103273.25
2023-02-11T08:08:01.827Z,103289.38
2023-02-11T08:09:07.271Z,103282.84
2023-02-11T08:10:09.853Z,103289.00
2023-02-11T08:11:15.630Z,103282.66
2023-02-11T08:12:19.016Z,103281.25
2023-02-11T08:13:21.469Z,103283.78
2023-02-11T08:14:25.338Z,103281.25
2023-02-11T08:15:28.511Z,103278.00
2023-02-11T08:16:34.635Z,103282.22
2023-02-11T08:17:38.016Z,103278.50
2023-02-11T08:18:42.964Z,103271.88
2023-02-11T08:19:45.310Z,103277.91
2023-02-11T08:20:49.568Z,103285.50
2023-02-11T08:21:56.134Z,103277.06
2023-02-11T08:22:59.567Z,103273.44
2023-02-11T08:24:02.508Z,103277.28
2023-02-11T08:25:06.656Z,103277.97
2023-02-11T08:26:11.371Z,103278.41
2023-02-11T08:27:15.033Z,103275.94
2023-02-11T08:28:17.815Z,103274.50
2023-02-11T08:29:21.720Z,103275.50
2023-02-11T08:30:27.231Z,103271.34
2023-02-11T08:31:33.429Z,103269.38
2023-02-11T08:32:37.611Z,103278.09
2023-02-11T08:33:41.826Z,103271.44
2023-02-11T08:34:45.217Z,103277.00
2023-02-11T08:35:47.522Z,103277.66
2023-02-11T08:36:51.055Z,103277.66
2023-02-11T08:37:53.656Z,103282.22
2023-02-11T08:39:12.171Z,103277.47
2023-02-11T08:40:20.069Z,103275.63
2023-02-11T08:41:22.533Z,103274.94
2023-02-11T08:42:26.174Z,103268.59
2023-02-11T08:43:28.639Z,103273.09
2023-02-11T08:44:32.237Z,103268.53
2023-02-11T08:45:34.688Z,103273.09
2023-02-11T08:46:38.490Z,103272.59
2023-02-11T08:47:41.788Z,103271.34
2023-02-11T08:48:47.958Z,103278.78
2023-02-11T08:49:51.654Z,103281.44
2023-02-11T08:50:54.256Z,103274.16
2023-02-11T08:52:02.303Z,103280.41
2023-02-11T08:53:05.247Z,103276.47
2023-02-11T08:54:10.023Z,103273.38
2023-02-11T08:55:13.579Z,103273.19
2023-02-11T08:56:17.230Z,103277.44
2023-02-11T08:57:20.608Z,103273.91
2023-02-11T08:58:23.762Z,103279.22
2023-02-11T08:59:27.184Z,103282.84
2023-02-11T09:00:30.728Z,103279.97
2023-02-11T09:01:34.769Z,103280.56
2023-02-11T09:02:37.532Z,103275.88
2023-02-11T09:03:41.050Z,103273.56
2023-02-11T09:04:46.266Z,103276.72
2023-02-11T09:05:50.128Z,103282.50
2023-02-11T09:06:54.087Z,103277.91
2023-02-11T09:07:57.628Z,103281.41
2023-02-11T09:09:01.253Z,103287.66
2023-02-11T09:10:03.978Z,103289.28
2023-02-11T09:11:07.774Z,103283.91
2023-02-11T09:12:11.256Z,103289.66
2023-02-11T09:13:14.173Z,103284.19
2023-02-11T09:14:20.157Z,103287.38
2023-02-11T09:15:23.568Z,103286.53
2023-02-11T09:16:28.110Z,103286.78
2023-02-11T09:17:31.912Z,103288.53
2023-02-11T09:18:34.842Z,103279.81
2023-02-11T09:19:38.336Z,103292.16
2023-02-11T09:20:42.517Z,103295.31
2023-02-11T09:21:46.171Z,103295.06
2023-02-11T09:22:49.953Z,103294.06
2023-02-11T09:23:52.526Z,103293.81
2023-02-11T09:24:56.282Z,103297.06
2023-02-11T09:25:59.830Z,103296.31
2023-02-11T09:27:03.777Z,103295.50
2023-02-11T09:28:07.417Z,103297.44
2023-02-11T09:29:11.223Z,103297.19
2023-02-11T09:30:15.446Z,103294.88
2023-02-11T09:31:20.292Z,103293.03
2023-02-11T09:32:23.620Z,103296.13
2023-02-11T09:33:27.352Z,103289.13
2023-02-11T09:34:29.908Z,103293.31
2023-02-11T09:35:35.119Z,103299.81
2023-02-11T09:36:41.769Z,103295.13
2023-02-11T09:37:44.140Z,103296.09
2023-02-11T09:38:48.517Z,103295.25
2023-02-11T09:39:51.013Z,103291.97
2023-02-11T09:40:54.442Z,103298.16
2023-02-11T09:42:21.332Z,103286.91
2023-02-11T09:43:28.761Z,103290.78
2023-02-11T09:44:34.074Z,103300.59
2023-02-11T09:45:38.101Z,103290.13
2023-02-11T09:46:42.970Z,103294.81
2023-02-11T09:47:57.131Z,103298.06
2023-02-11T09:49:00.392Z,103298.38
2023-02-11T09:50:06.954Z,103302.00
2023-02-11T09:51:21.370Z,103295.13
2023-02-11T09:52:35.137Z,103306.81
2023-02-11T09:53:43.891Z,103305.66
2023-02-11T09:54:55.699Z,103304.06
2023-02-11T09:56:01.953Z,103311.53
2023-02-11T09:57:06.451Z,103303.91
2023-02-11T09:58:14.626Z,103307.38
2023-02-11T09:59:18.928Z,103304.59
2023-02-11T10:00:24.336Z,103312.53
2023-02-11T10:01:37.893Z,103291.88
2023-02-11T10:02:56.996Z,103292.59
2023-02-11T10:04:08.064Z,103294.81
2023-02-11T10:05:43.700Z,103308.06
2023-02-11T10:06:50.482Z,103311.44
2023-02-11T10:08:04.946Z,103305.41
2023-02-11T10:09:34.687Z,103292.59
2023-02-11T10:10:47.968Z,103293.66
2023-02-11T10:12:00.107Z,103289.63
2023-02-11T10:13:19.853Z,103300.56
2023-02-11T10:14:49.447Z,103305.00
2023-02-11T10:16:03.097Z,103305.06
2023-02-11T10:17:18.284Z,103308.53
2023-02-11T10:18:41.671Z,103305.16
2023-02-11T10:19:59.537Z,103303.34
2023-02-11T10:21:14.094Z,103306.38
2023-02-11T10:22:23.851Z,103306.22
2023-02-11T10:23:33.523Z,103300.81
2023-02-11T10:24:37.458Z,103309.47
2023-02-11T10:25:45.486Z,103305.31
2023-02-11T10:26:48.276Z,103307.25
2023-02-11T10:27:52.607Z,103311.28
2023-02-11T10:29:01.204Z,103313.47
2023-02-11T10:30:11.396Z,103314.00
2023-02-11T10:31:20.019Z,103312.34
2023-02-11T10:32:32.586Z,103309.22
2023-02-11T10:33:43.449Z,103315.75
2023-02-11T10:34:45.942Z,103319.00
2023-02-11T10:35:49.981Z,103315.84
2023-02-11T10:36:53.540Z,103311.06
2023-02-11T10:37:57.816Z,103321.66
2023-02-11T10:39:09.892Z,103307.13
2023-02-11T10:40:16.343Z,103322.25
2023-02-11T10:41:25.665Z,103315.81
2023-02-11T10:42:29.855Z,103314.53
2023-02-11T10:43:34.786Z,103306.41
2023-02-11T10:44:40.118Z,103313.81
2023-02-11T10:45:46.779Z,103319.84
2023-02-11T10:46:50.325Z,103310.06
2023-02-11T10:47:55.347Z,103312.13
2023-02-11T10:48:57.857Z,103303.56
2023-02-11T10:50:03.807Z,103315.59
2023-02-11T10:51:17.978Z,103308.97
2023-02-11T10:52:23.996Z,103301.38
2023-02-11T10:53:26.440Z,103300.16
2023-02-11T10:54:31.478Z,103298.03
2023-02-11T10:55:35.170Z,103296.22
2023-02-11T10:56:41.520Z,103295.59
2023-02-11T10:57:53.845Z,103299.06
2023-02-11T10:59:00.014Z,103297.16
2023-02-11T11:00:09.441Z,103295.50
2023-02-11T11:01:23.855Z,103287.88
2023-02-11T11:02:34.750Z,103293.22
2023-02-11T11:03:41.178Z,103295.03
2023-02-11T11:04:45.302Z,103294.59
2023-02-11T11:05:50.952Z,103295.53
2023-02-11T11:06:53.726Z,103296.06
2023-02-11T11:07:59.920Z,103294.00
2023-02-11T11:09:02.663Z,103289.06
2023-02-11T11:10:09.724Z,103288.47
2023-02-11T11:11:14.874Z,103286.16
2023-02-11T11:12:30.764Z,103289.63
2023-02-11T11:13:36.863Z,103289.38
2023-02-11T11:14:39.627Z,103282.69
2023-02-11T11:15:43.143Z,103286.66
2023-02-11T11:16:55.007Z,103285.53
2023-02-11T11:18:22.610Z,103291.72
2023-02-11T11:19:27.478Z,103283.78
2023-02-11T11:20:32.466Z,103284.22
2023-02-11T11:21:41.853Z,103283.66
2023-02-11T11:22:45.587Z,103280.91
2023-02-11T11:23:52.684Z,103276.78
2023-02-11T11:24:57.811Z,103275.56
2023-02-11T11:26:06.829Z,103281.13
2023-02-11T11:27:19.615Z,103273.78
2023-02-11T11:28:25.485Z,103278.25
2023-02-11T11:29:36.281Z,103273.44
2023-02-11T11:30:43.025Z,103273.41
2023-02-11T11:31:53.356Z,103273.09
2023-02-11T11:32:56.834Z,103272.03
2023-02-11T11:34:02.619Z,103268.28
2023-02-11T11:35:22.245Z,103267.22
2023-02-11T11:36:35.444Z,103261.59
2023-02-11T11:37:39.266Z,103260.69
2023-02-11T11:38:47.692Z,103267.50
2023-02-11T11:39:59.597Z,103265.16
2023-02-11T11:41:18.888Z,103265.06
2023-02-11T11:42:33.300Z,103257.47
2023-02-11T11:43:37.733Z,103258.75
2023-02-11T11:44:41.064Z,103256.31
2023-02-11T11:45:55.406Z,103258.06
2023-02-11T11:47:28.032Z,103259.22
2023-02-11T11:48:35.218Z,103253.06
2023-02-11T11:49:45.299Z,103253.25
2023-02-11T11:50:53.500Z,103251.09
2023-02-11T11:52:12.863Z,103250.25
2023-02-11T11:53:22.346Z,103250.09
2023-02-11T11:54:28.421Z,103249.03
2023-02-11T11:55:36.997Z,103253.06
2023-02-11T11:56:51.852Z,103251.00
2023-02-11T11:57:55.491Z,103258.59
2023-02-11T11:59:03.172Z,103247.03
2023-02-11T12:00:14.925Z,103242.81
2023-02-11T12:01:32.575Z,103246.34
2023-02-11T12:03:22.017Z,103243.03
2023-02-11T12:04:50.639Z,103246.22
2023-02-11T12:06:07.125Z,103233.88
2023-02-11T12:07:24.791Z,103229.97
2023-02-11T12:08:38.470Z,103235.38
2023-02-11T12:09:54.362Z,103233.13
2023-02-11T12:11:10.797Z,103232.94
2023-02-11T12:12:32.388Z,103234.50
2023-02-11T12:13:49.253Z,103232.78
2023-02-11T12:15:02.666Z,103235.66
2023-02-11T12:16:14.490Z,103231.47
2023-02-11T12:17:37.418Z,103228.84
2023-02-11T12:19:07.831Z,103228.38
2023-02-11T12:20:39.993Z,103231.16
2023-02-11T12:21:57.775Z,103237.28
2023-02-11T12:23:19.528Z,103223.19
2023-02-11T12:24:36.009Z,103231.06
2023-02-11T12:25:46.835Z,103226.97
2023-02-11T12:26:58.387Z,103223.94
2023-02-11T12:28:17.412Z,103215.47
2023-02-11T12:29:32.701Z,103223.31
2023-02-11T12:30:59.604Z,103217.72
2023-02-11T12:32:14.838Z,103208.59
2023-02-11T12:33:26.418Z,103215.31
2023-02-11T12:34:51.333Z,103209.13
2023-02-11T12:36:01.402Z,103211.09
2023-02-11T12:37:14.593Z,103205.75
2023-02-11T12:38:40.108Z,103207.91
2023-02-11T12:39:49.129Z,103218.28
2023-02-11T12:41:03.241Z,103209.41